createdAt,value
2023-02-21T00:01:37.627Z,57.85
2023-02-21T00:04:04.296Z,57.79
2023-02-21T00:06:30.933Z,58.95
2023-02-21T00:08:57.585Z,58.41
2023-02-21T00:11:24.237Z,59.54
2023-02-21T00:13:50.896Z,59.39
2023-02-21T00:16:17.603Z,59.09
2023-02-21T00:18:44.290Z,58.70
2023-02-21T00:21:11.014Z,58.24
2023-02-21T00:23:37.744Z,58.04
2023-02-21T00:26:04.400Z,57.72
2023-02-21T00:28:31.041Z,57.17
2023-02-21T00:30:57.793Z,58.39
2023-02-21T00:33:24.576Z,58.35
2023-02-21T00:35:51.218Z,58.46
2023-02-21T00:38:17.861Z,59.11
2023-02-21T00:40:44.551Z,59.94
2023-02-21T00:43:11.196Z,58.78
2023-02-21T00:45:37.907Z,58.30
2023-02-21T00:48:04.610Z,58.20
2023-02-21T00:50:31.242Z,57.18
2023-02-21T00:52:58.000Z,57.22
2023-02-21T00:55:24.636Z,58.43
2023-02-21T00:57:51.307Z,57.98
2023-02-21T01:00:17.950Z,58.45
2023-02-21T01:02:44.610Z,59.03
2023-02-21T01:05:11.306Z,59.82
2023-02-21T01:07:37.957Z,59.67
2023-02-21T01:10:04.598Z,58.82
2023-02-21T01:12:31.303Z,58.13
2023-02-21T01:14:58.025Z,57.83
2023-02-21T01:17:24.670Z,58.70
2023-02-21T01:19:51.312Z,58.86
2023-02-21T01:22:17.897Z,58.08
2023-02-21T01:24:44.526Z,58.01
2023-02-21T01:27:11.139Z,57.66
2023-02-21T01:29:37.800Z,57.84
2023-02-21T01:32:04.482Z,57.46
2023-02-21T01:34:31.133Z,57.60
2023-02-21T01:36:57.802Z,57.80
2023-02-21T01:39:24.468Z,57.61
2023-02-21T01:41:51.138Z,56.93
2023-02-21T01:44:17.816Z,57.62
2023-02-21T01:46:44.511Z,57.26
2023-02-21T01:49:11.170Z,57.64
2023-02-21T01:51:37.844Z,58.24
2023-02-21T01:54:04.503Z,59.49
2023-02-21T01:56:31.154Z,58.78
2023-02-21T01:58:57.838Z,58.46
2023-02-21T02:01:24.564Z,57.44
2023-02-21T02:03:51.336Z,58.37
2023-02-21T02:06:18.022Z,58.55
2023-02-21T02:08:44.658Z,58.49
2023-02-21T02:11:11.330Z,57.23
2023-02-21T02:13:38.038Z,57.10
2023-02-21T02:16:04.724Z,56.77
2023-02-21T02:18:31.405Z,57.11
2023-02-21T02:20:58.078Z,58.37
2023-02-21T02:23:24.761Z,58.40
2023-02-21T02:25:51.392Z,59.04
2023-02-21T02:28:18.085Z,58.21
2023-02-21T02:30:44.718Z,57.72
2023-02-21T02:33:11.379Z,56.98
2023-02-21T02:35:38.016Z,57.37
2023-02-21T02:38:04.639Z,58.00
2023-02-21T02:40:31.239Z,59.09
2023-02-21T02:42:57.898Z,58.21
2023-02-21T02:45:24.589Z,57.66
2023-02-21T02:47:51.184Z,58.13
2023-02-21T02:50:17.801Z,58.62
2023-02-21T02:52:44.457Z,58.48
2023-02-21T02:55:11.069Z,57.61
2023-02-21T02:57:37.693Z,58.54
2023-02-21T03:00:04.337Z,57.90
2023-02-21T03:02:30.933Z,58.82
2023-02-21T03:04:57.662Z,60.05
2023-02-21T03:07:24.259Z,59.83
2023-02-21T03:09:51.679Z,59.82
2023-02-21T03:12:18.373Z,58.80
2023-02-21T03:14:45.022Z,58.50
2023-02-21T03:17:11.701Z,58.24
2023-02-21T03:19:38.296Z,58.15
2023-02-21T03:22:04.942Z,58.16
2023-02-21T03:24:31.588Z,57.52
2023-02-21T03:26:58.473Z,57.88
2023-02-21T03:29:25.235Z,58.20
2023-02-21T03:31:52.091Z,57.20
2023-02-21T03:34:18.804Z,57.57
2023-02-21T03:36:45.491Z,58.33
2023-02-21T03:39:12.168Z,58.71
2023-02-21T03:41:38.796Z,58.78
2023-02-21T03:44:05.502Z,57.99
2023-02-21T03:46:32.292Z,58.35
2023-02-21T03:48:59.033Z,57.92
2023-02-21T03:51:25.696Z,58.53
2023-02-21T03:53:52.385Z,58.02
2023-02-21T03:56:19.013Z,58.07
2023-02-21T03:58:45.697Z,58.11
2023-02-21T04:01:12.529Z,57.15
2023-02-21T04:03:39.346Z,57.59
2023-02-21T04:06:06.064Z,57.74
2023-02-21T04:08:32.741Z,57.92
2023-02-21T04:10:59.375Z,59.59
2023-02-21T04:13:26.079Z,59.11
2023-02-21T04:15:52.726Z,59.60
2023-02-21T04:18:19.373Z,58.60
2023-02-21T04:20:46.042Z,58.32
2023-02-21T04:23:12.718Z,58.90
2023-02-21T04:25:39.428Z,58.40
2023-02-21T04:28:06.048Z,58.36
2023-02-21T04:30:32.768Z,58.66
2023-02-21T04:32:59.439Z,58.76
2023-02-21T04:35:26.094Z,59.07
2023-02-21T04:37:52.708Z,59.59
2023-02-21T04:40:19.304Z,59.43
2023-02-21T04:42:45.955Z,58.14
2023-02-21T04:45:12.550Z,58.94
2023-02-21T04:47:39.191Z,58.10
2023-02-21T04:50:05.828Z,57.93
2023-02-21T04:52:32.556Z,58.13
2023-02-21T04:54:59.210Z,58.30
2023-02-21T04:57:25.814Z,57.19
2023-02-21T04:59:52.433Z,57.69
2023-02-21T05:02:19.086Z,58.43
2023-02-21T05:04:45.790Z,59.79
2023-02-21T05:07:12.465Z,60.54
2023-02-21T05:09:39.173Z,61.01
2023-02-21T05:12:05.854Z,60.24
2023-02-21T05:14:32.513Z,60.90
2023-02-21T05:16:59.157Z,60.69
2023-02-21T05:19:25.824Z,61.13
2023-02-21T05:21:52.429Z,60.38
2023-02-21T05:24:19.048Z,60.85
2023-02-21T05:26:45.737Z,60.92
2023-02-21T05:29:12.383Z,59.32
2023-02-21T05:31:39.101Z,59.00
2023-02-21T05:34:05.771Z,59.16
2023-02-21T05:36:32.441Z,59.47
2023-02-21T05:38:59.125Z,59.73
2023-02-21T05:41:25.792Z,58.45
2023-02-21T05:43:52.502Z,59.64
2023-02-21T05:46:19.272Z,58.80
2023-02-21T05:48:45.998Z,59.42
2023-02-21T05:51:12.834Z,58.89
2023-02-21T05:53:39.574Z,58.36
2023-02-21T05:56:06.216Z,58.01
2023-02-21T05:58:32.851Z,58.00
2023-02-21T06:00:59.481Z,58.33
2023-02-21T06:03:26.152Z,57.48
2023-02-21T06:05:52.867Z,57.50
2023-02-21T06:08:19.542Z,58.35
2023-02-21T06:10:47.726Z,58.98
2023-02-21T06:13:15.288Z,58.72
2023-02-21T06:15:42.018Z,59.14
2023-02-21T06:18:08.706Z,59.01
2023-02-21T06:20:35.371Z,57.55
2023-02-21T06:23:02.106Z,58.16
2023-02-21T06:25:28.805Z,57.28
2023-02-21T06:27:55.471Z,58.40
2023-02-21T06:30:23.237Z,58.41
2023-02-21T06:32:49.970Z,57.46
2023-02-21T06:35:16.626Z,57.20
2023-02-21T06:37:43.300Z,58.67
2023-02-21T06:40:10.054Z,57.98
2023-02-21T06:42:36.734Z,57.45
2023-02-21T06:45:03.380Z,57.30
2023-02-21T06:47:30.056Z,56.22
2023-02-21T06:49:56.725Z,56.82
2023-02-21T06:52:23.367Z,56.44
2023-02-21T06:54:50.061Z,56.74
2023-02-21T06:57:16.708Z,57.06
2023-02-21T06:59:43.365Z,55.88
2023-02-21T07:02:10.050Z,55.94
2023-02-21T07:04:36.824Z,54.63
2023-02-21T07:07:03.590Z,54.71
2023-02-21T07:09:30.237Z,54.14
2023-02-21T07:11:56.888Z,53.86
2023-02-21T07:14:23.578Z,53.19
2023-02-21T07:16:50.191Z,52.42
2023-02-21T07:21:42.598Z,51.92
2023-02-21T07:24:09.291Z,51.71
2023-02-21T07:26:35.975Z,51.33
2023-02-21T07:29:02.688Z,51.40
2023-02-21T07:31:29.418Z,50.12
2023-02-21T07:33:56.129Z,50.52
2023-02-21T07:36:22.807Z,50.29
2023-02-21T07:38:49.439Z,49.47
2023-02-21T07:41:16.353Z,49.72
2023-02-21T07:43:43.103Z,49.35
2023-02-21T07:46:09.804Z,49.05
2023-02-21T07:48:36.491Z,48.17
2023-02-21T07:51:03.165Z,47.54
2023-02-21T07:53:29.835Z,47.10
2023-02-21T07:55:56.460Z,47.43
2023-02-21T07:58:23.118Z,48.01
2023-02-21T08:00:49.715Z,47.30
2023-02-21T08:03:16.427Z,47.31
2023-02-21T08:05:43.082Z,47.48
2023-02-21T08:08:09.740Z,46.82
2023-02-21T08:10:36.388Z,46.57
2023-02-21T08:13:03.026Z,45.94
2023-02-21T08:15:29.686Z,44.92
2023-02-21T08:17:56.308Z,45.34
2023-02-21T08:20:22.972Z,45.00
2023-02-21T08:22:49.658Z,44.45
2023-02-21T08:25:16.277Z,44.08
2023-02-21T08:27:42.952Z,43.56
2023-02-21T08:30:09.663Z,43.67
2023-02-21T08:32:36.311Z,43.20
2023-02-21T08:35:02.988Z,43.94
2023-02-21T08:37:29.674Z,42.74
2023-02-21T08:39:56.334Z,42.65
2023-02-21T08:42:22.969Z,41.66
2023-02-21T08:44:49.662Z,42.60
2023-02-21T08:47:16.331Z,41.76
2023-02-21T08:49:43.023Z,41.57
2023-02-21T08:52:09.712Z,40.96
2023-02-21T08:54:36.366Z,40.69
2023-02-21T08:57:02.983Z,40.49
2023-02-21T08:59:29.628Z,40.06
2023-02-21T09:01:56.289Z,39.77
2023-02-21T09:04:24.668Z,39.36
2023-02-21T09:06:51.394Z,39.46
2023-02-21T09:09:18.033Z,37.88
2023-02-21T09:11:44.706Z,39.49
2023-02-21T09:14:11.414Z,39.54
2023-02-21T09:16:38.106Z,37.92
2023-02-21T09:19:04.712Z,39.54
2023-02-21T09:21:31.326Z,39.08
2023-02-21T09:23:57.975Z,38.88
2023-02-21T09:26:24.626Z,38.22
2023-02-21T09:28:51.254Z,36.99
2023-02-21T09:31:18.199Z,37.19
2023-02-21T09:33:45.034Z,37.36
2023-02-21T09:36:11.672Z,36.96
2023-02-21T09:38:38.346Z,37.34
2023-02-21T09:41:05.041Z,36.59
2023-02-21T09:43:31.745Z,36.16
2023-02-21T09:45:58.440Z,35.75
2023-02-21T09:48:25.195Z,35.96
2023-02-21T09:50:51.887Z,35.54
2023-02-21T09:53:18.513Z,35.54
2023-02-21T09:55:45.230Z,35.12
2023-02-21T09:58:11.863Z,34.95
2023-02-21T10:00:38.458Z,34.76
2023-02-21T10:03:05.080Z,34.66
2023-02-21T10:05:31.781Z,34.06
2023-02-21T10:07:58.594Z,35.05
2023-02-21T10:10:25.289Z,35.41
2023-02-21T10:12:51.952Z,34.74
2023-02-21T10:15:18.587Z,34.43
2023-02-21T10:17:45.263Z,34.78
2023-02-21T10:20:11.992Z,34.60
2023-02-21T10:22:38.638Z,33.68
2023-02-21T10:25:05.337Z,33.18
2023-02-21T10:27:32.227Z,33.87
2023-02-21T10:29:59.094Z,33.63
2023-02-21T10:32:26.096Z,32.97
2023-02-21T10:34:52.735Z,33.17
2023-02-21T10:37:19.445Z,32.99
2023-02-21T10:39:46.151Z,31.95
2023-02-21T10:42:12.797Z,31.54
2023-02-21T10:44:39.407Z,32.46
2023-02-21T10:47:06.103Z,33.74
2023-02-21T10:49:32.728Z,32.78
2023-02-21T10:51:59.411Z,34.01
2023-02-21T10:54:26.081Z,35.12
2023-02-21T10:56:52.847Z,33.06
2023-02-21T10:59:19.554Z,32.92
2023-02-21T11:01:46.281Z,33.73
2023-02-21T11:04:12.966Z,32.19
2023-02-21T11:06:39.650Z,30.77
2023-02-21T11:09:06.268Z,29.74
2023-02-21T11:11:32.871Z,30.14
2023-02-21T11:14:00.096Z,30.13
2023-02-21T11:16:26.754Z,28.81
2023-02-21T11:18:53.372Z,27.76
2023-02-21T11:21:20.037Z,27.71
2023-02-21T11:23:46.742Z,27.68
2023-02-21T11:26:13.398Z,28.31
2023-02-21T11:28:40.038Z,27.24
2023-02-21T11:31:06.755Z,27.65
2023-02-21T11:33:33.478Z,27.25
2023-02-21T11:36:00.184Z,26.87
2023-02-21T11:38:28.433Z,26.65
2023-02-21T11:40:55.249Z,27.34
2023-02-21T11:43:21.962Z,27.48
2023-02-21T11:45:48.626Z,27.23
2023-02-21T11:48:15.286Z,25.95
2023-02-21T11:50:42.004Z,26.52
2023-02-21T11:53:08.651Z,26.14
2023-02-21T11:55:35.313Z,27.61
2023-02-21T11:58:02.005Z,26.83
2023-02-21T12:00:28.661Z,26.65
2023-02-21T12:02:55.416Z,27.92
2023-02-21T12:05:22.101Z,28.70
2023-02-21T12:07:48.817Z,28.58
2023-02-21T12:10:15.581Z,29.34
2023-02-21T12:12:42.304Z,28.64
2023-02-21T12:15:08.975Z,29.25
2023-02-21T12:17:35.721Z,28.12
2023-02-21T12:20:04.261Z,27.24
2023-02-21T12:22:30.950Z,26.92
2023-02-21T12:24:57.597Z,27.99
2023-02-21T12:27:24.189Z,27.41
2023-02-21T12:29:50.841Z,26.92
2023-02-21T12:32:17.553Z,26.33
2023-02-21T12:34:44.351Z,26.09
2023-02-21T12:37:11.070Z,26.86
2023-02-21T12:39:37.706Z,25.38
2023-02-21T12:42:04.376Z,25.26
2023-02-21T12:44:32.799Z,27.00
2023-02-21T12:46:59.615Z,26.34
2023-02-21T12:49:26.275Z,25.54
2023-02-21T12:51:53.003Z,24.76
2023-02-21T12:54:19.665Z,26.21
2023-02-21T12:56:46.429Z,25.13
2023-02-21T12:59:13.078Z,25.34
2023-02-21T13:01:39.762Z,25.26
2023-02-21T13:04:06.404Z,23.46
2023-02-21T13:06:33.081Z,23.75
2023-02-21T13:08:59.702Z,23.98
2023-02-21T13:11:26.325Z,24.22
2023-02-21T13:13:52.969Z,23.44
2023-02-21T13:16:19.688Z,24.48
2023-02-21T13:18:46.410Z,24.09
2023-02-21T13:21:13.226Z,23.47
2023-02-21T13:23:40.067Z,23.65
2023-02-21T13:26:06.720Z,22.69
2023-02-21T13:28:33.368Z,22.10
2023-02-21T13:31:00.075Z,22.24
2023-02-21T13:33:26.808Z,22.63
2023-02-21T13:35:53.446Z,22.88
2023-02-21T13:38:20.150Z,22.77
2023-02-21T13:40:46.787Z,21.95
2023-02-21T13:43:13.461Z,22.63
2023-02-21T13:45:40.062Z,22.50
2023-02-21T13:48:06.717Z,23.06
2023-02-21T13:50:33.391Z,22.93
2023-02-21T13:53:00.039Z,22.86
2023-02-21T13:55:26.750Z,22.59
2023-02-21T13:57:53.430Z,21.92
2023-02-21T14:00:20.132Z,22.80
2023-02-21T14:02:46.796Z,22.59
2023-02-21T14:05:13.459Z,22.68
2023-02-21T14:07:40.141Z,22.45
2023-02-21T14:10:06.805Z,22.61
2023-02-21T14:12:33.450Z,22.86
2023-02-21T14:15:00.160Z,23.05
2023-02-21T14:17:26.853Z,23.09
2023-02-21T14:19:55.384Z,23.17
2023-02-21T14:22:23.839Z,22.85
2023-02-21T14:24:50.459Z,22.69
2023-02-21T14:27:17.130Z,23.10
2023-02-21T14:29:43.806Z,23.54
2023-02-21T14:32:10.559Z,22.95
2023-02-21T14:34:37.325Z,22.29
2023-02-21T14:37:04.013Z,22.62
2023-02-21T14:39:30.650Z,23.58
2023-02-21T14:41:57.301Z,23.03
2023-02-21T14:44:23.978Z,23.02
2023-02-21T14:46:50.652Z,23.13
2023-02-21T14:49:17.532Z,23.98
2023-02-21T14:51:44.204Z,23.84
2023-02-21T14:54:10.846Z,23.51
2023-02-21T14:56:37.498Z,23.55
2023-02-21T14:59:04.145Z,23.70
2023-02-21T15:01:30.920Z,24.01
2023-02-21T15:03:57.623Z,23.50
2023-02-21T15:06:24.227Z,22.64
2023-02-21T15:08:50.916Z,22.96
2023-02-21T15:11:17.526Z,23.44
2023-02-21T15:13:44.227Z,23.23
2023-02-21T15:16:10.889Z,23.38
2023-02-21T15:18:37.541Z,23.88
2023-02-21T15:21:04.244Z,23.38
2023-02-21T15:23:30.895Z,23.54
2023-02-21T15:25:57.614Z,23.72
2023-02-21T15:28:24.274Z,23.59
2023-02-21T15:30:51.069Z,23.90
2023-02-21T15:33:17.837Z,24.07
2023-02-21T15:35:44.478Z,24.48
2023-02-21T15:38:11.082Z,24.67
2023-02-21T15:40:37.801Z,24.36
2023-02-21T15:43:04.669Z,25.11
2023-02-21T15:45:31.320Z,24.92
2023-02-21T15:47:58.014Z,25.14
2023-02-21T15:50:24.651Z,26.21
2023-02-21T15:52:51.373Z,25.64
2023-02-21T15:55:18.021Z,26.83
2023-02-21T15:57:44.678Z,27.08
2023-02-21T16:00:11.311Z,26.88
2023-02-21T16:02:38.074Z,27.27
2023-02-21T16:05:04.788Z,27.30
2023-02-21T16:07:31.403Z,27.89
2023-02-21T16:09:58.102Z,27.81
2023-02-21T16:12:24.758Z,28.13
2023-02-21T16:14:51.428Z,29.36
2023-02-21T16:17:18.029Z,29.08
2023-02-21T16:19:46.773Z,28.76
2023-02-21T16:22:15.042Z,29.48
2023-02-21T16:24:41.683Z,28.87
2023-02-21T16:27:08.322Z,29.71
2023-02-21T16:29:34.979Z,30.05
2023-02-21T16:32:01.757Z,30.36
2023-02-21T16:34:28.394Z,30.00
2023-02-21T16:36:55.016Z,30.67
2023-02-21T16:39:21.670Z,31.62
2023-02-21T16:41:48.340Z,32.05
2023-02-21T16:44:14.960Z,30.99
2023-02-21T16:46:41.718Z,31.76
2023-02-21T16:49:08.454Z,31.82
2023-02-21T16:51:35.113Z,32.44
2023-02-21T16:54:01.751Z,32.85
2023-02-21T16:56:28.397Z,32.85
2023-02-21T16:58:55.061Z,33.20
2023-02-21T17:01:21.726Z,33.50
2023-02-21T17:03:48.372Z,33.32
2023-02-21T17:06:15.036Z,34.20
2023-02-21T17:08:41.713Z,33.98
2023-02-21T17:11:08.390Z,34.34
2023-02-21T17:13:35.033Z,34.41
2023-02-21T17:16:01.718Z,34.85
2023-02-21T17:18:28.444Z,34.53
2023-02-21T17:20:55.113Z,35.15
2023-02-21T17:23:24.083Z,35.21
2023-02-21T17:25:50.707Z,35.70
2023-02-21T17:28:17.359Z,35.54
2023-02-21T17:30:44.206Z,35.85
2023-02-21T17:33:10.874Z,35.65
2023-02-21T17:35:37.508Z,35.68
2023-02-21T17:38:04.460Z,36.61
2023-02-21T17:40:31.147Z,36.81
2023-02-21T17:42:57.874Z,36.93
2023-02-21T17:45:24.509Z,36.85
2023-02-21T17:47:51.148Z,37.28
2023-02-21T17:50:17.768Z,37.11
2023-02-21T17:52:44.531Z,37.21
2023-02-21T17:55:11.182Z,37.29
2023-02-21T17:57:38.015Z,37.35
2023-02-21T18:00:04.665Z,37.55
2023-02-21T18:02:31.319Z,38.13
2023-02-21T18:04:58.018Z,38.45
2023-02-21T18:07:24.778Z,38.31
2023-02-21T18:09:51.433Z,38.08
2023-02-21T18:12:18.080Z,38.32
2023-02-21T18:14:44.765Z,38.15
2023-02-21T18:17:11.453Z,38.48
2023-02-21T18:19:38.108Z,39.26
2023-02-21T18:22:04.802Z,39.24
2023-02-21T18:24:31.500Z,39.07
2023-02-21T18:26:58.172Z,39.20
2023-02-21T18:29:24.840Z,39.37
2023-02-21T18:31:51.618Z,39.63
2023-02-21T18:34:18.241Z,39.98
2023-02-21T18:36:44.913Z,40.03
2023-02-21T18:39:11.526Z,40.38
2023-02-21T18:41:38.170Z,40.38
2023-02-21T18:44:04.869Z,40.39
2023-02-21T18:46:31.610Z,40.52
2023-02-21T18:48:58.282Z,40.72
2023-02-21T18:51:24.954Z,40.52
2023-02-21T18:53:51.651Z,40.99
2023-02-21T18:56:18.388Z,41.34
2023-02-21T18:58:45.021Z,41.36
2023-02-21T19:01:11.982Z,41.66
2023-02-21T19:03:38.733Z,42.22
2023-02-21T19:06:05.449Z,42.02
2023-02-21T19:08:32.150Z,42.22
2023-02-21T19:10:58.759Z,43.30
2023-02-21T19:13:25.814Z,43.08
2023-02-21T19:15:52.458Z,43.75
2023-02-21T19:18:19.231Z,43.29
2023-02-21T19:20:45.857Z,43.16
2023-02-21T19:23:12.539Z,43.02
2023-02-21T19:25:39.149Z,43.92
2023-02-21T19:28:05.777Z,44.95
2023-02-21T19:30:32.503Z,44.41
2023-02-21T19:32:59.184Z,44.31
2023-02-21T19:35:25.817Z,44.34
2023-02-21T19:37:52.481Z,44.62
2023-02-21T19:40:19.163Z,44.46
2023-02-21T19:42:45.802Z,44.26
2023-02-21T19:45:12.510Z,44.29
2023-02-21T19:47:39.134Z,44.28
2023-02-21T19:50:05.851Z,44.21
2023-02-21T19:52:32.495Z,44.07
2023-02-21T19:54:59.210Z,44.93
2023-02-21T19:57:25.929Z,44.94
2023-02-21T19:59:52.616Z,45.86
2023-02-21T20:02:19.327Z,45.37
2023-02-21T20:04:45.955Z,44.90
2023-02-21T20:07:12.715Z,44.47
2023-02-21T20:09:39.355Z,45.14
2023-02-21T20:12:06.002Z,45.64
2023-02-21T20:14:32.651Z,44.84
2023-02-21T20:16:59.314Z,45.75
2023-02-21T20:19:25.981Z,45.07
2023-02-21T20:21:52.589Z,45.64
2023-02-21T20:24:19.313Z,46.30
2023-02-21T20:26:48.884Z,46.44
2023-02-21T20:29:17.613Z,46.36
2023-02-21T20:31:44.354Z,46.42
2023-02-21T20:34:11.094Z,47.00
2023-02-21T20:36:37.762Z,47.20
2023-02-21T20:39:04.471Z,47.08
2023-02-21T20:41:31.203Z,47.30
2023-02-21T20:43:57.859Z,47.15
2023-02-21T20:46:24.491Z,46.78
2023-02-21T20:48:51.200Z,46.45
2023-02-21T20:51:18.178Z,47.06
2023-02-21T20:53:46.735Z,48.69
2023-02-21T20:56:13.388Z,48.10
2023-02-21T20:58:40.058Z,49.09
2023-02-21T21:01:06.718Z,48.58
2023-02-21T21:03:33.405Z,48.38
2023-02-21T21:06:00.120Z,49.16
2023-02-21T21:08:26.830Z,48.90
2023-02-21T21:10:53.572Z,48.67
2023-02-21T21:13:20.238Z,48.75
2023-02-21T21:15:46.944Z,48.77
2023-02-21T21:18:13.690Z,48.76
2023-02-21T21:20:40.385Z,48.24
2023-02-21T21:23:08.931Z,49.00
2023-02-21T21:25:35.557Z,48.54
2023-02-21T21:28:02.233Z,48.46
2023-02-21T21:30:28.908Z,48.41
2023-02-21T21:32:55.644Z,48.09
2023-02-21T21:35:22.348Z,48.33
2023-02-21T21:37:49.000Z,48.56
2023-02-21T21:40:15.769Z,48.78
2023-02-21T21:42:42.421Z,48.98
2023-02-21T21:45:09.059Z,49.28
2023-02-21T21:47:35.713Z,50.45
2023-02-21T21:50:02.413Z,49.30
2023-02-21T21:52:29.076Z,49.34
2023-02-21T21:54:55.747Z,48.46
2023-02-21T21:57:22.455Z,49.79
2023-02-21T21:59:49.146Z,49.47
2023-02-21T22:02:15.855Z,49.93
2023-02-21T22:04:42.493Z,49.56
2023-02-21T22:07:09.147Z,50.69
2023-02-21T22:09:35.799Z,50.49
2023-02-21T22:12:02.407Z,49.87
2023-02-21T22:14:29.090Z,50.04
2023-02-21T22:16:55.746Z,50.43
2023-02-21T22:19:22.380Z,50.23
2023-02-21T22:21:49.017Z,50.02
2023-02-21T22:24:15.696Z,49.99
2023-02-21T22:26:42.364Z,49.54
2023-02-21T22:29:09.131Z,49.39
2023-02-21T22:31:35.786Z,49.56
2023-02-21T22:34:02.514Z,49.78
2023-02-21T22:36:29.157Z,49.92
2023-02-21T22:38:55.816Z,49.68
2023-02-21T22:41:22.421Z,49.79
2023-02-21T22:43:49.095Z,50.28
2023-02-21T22:46:15.788Z,50.22
2023-02-21T22:48:42.413Z,51.91
2023-02-21T22:51:09.078Z,51.23
2023-02-21T22:53:35.761Z,50.80
2023-02-21T22:56:02.548Z,51.29
2023-02-21T22:58:29.300Z,51.57
2023-02-21T23:00:55.971Z,50.82
2023-02-21T23:03:22.655Z,51.16
2023-02-21T23:05:49.327Z,51.71
2023-02-21T23:08:15.943Z,52.41
2023-02-21T23:10:42.563Z,51.30
2023-02-21T23:13:09.240Z,51.01
2023-02-21T23:15:35.852Z,51.42
2023-02-21T23:18:02.565Z,52.43
2023-02-21T23:20:29.242Z,52.18
2023-02-21T23:22:55.880Z,53.18
2023-02-21T23:25:22.500Z,52.97
2023-02-21T23:27:49.191Z,52.66
2023-02-21T23:30:15.876Z,53.19
2023-02-21T23:32:42.525Z,52.84
2023-02-21T23:35:09.234Z,52.62
2023-02-21T23:37:35.854Z,52.24
2023-02-21T23:40:02.558Z,52.23
2023-02-21T23:42:29.158Z,52.36
2023-02-21T23:44:55.808Z,52.23
2023-02-21T23:47:22.439Z,52.14
2023-02-21T23:49:49.080Z,52.37
2023-02-21T23:52:15.742Z,51.92
2023-02-21T23:54:42.434Z,51.87
2023-02-21T23:57:09.239Z,52.33
2023-02-21T23:59:35.854Z,52.49
